createdAt,value
2018-08-31T00:02:31.121Z,74.30
2018-08-31T00:06:10.827Z,73.83
2018-08-31T00:09:17.906Z,74.88
2018-08-31T00:12:30.188Z,73.81
2018-08-31T00:14:58.970Z,74.17
2018-08-31T00:17:27.772Z,73.38
2018-08-31T00:19:56.536Z,73.44
2018-08-31T00:22:25.304Z,73.28
2018-08-31T00:25:20.555Z,72.78
2018-08-31T00:28:00.472Z,72.68
2018-08-31T00:30:40.340Z,71.91
2018-08-31T00:36:23.937Z,72.47
2018-08-31T00:41:08.757Z,74.20
2018-08-31T00:45:57.331Z,75.22
2018-08-31T00:48:26.118Z,77.12
2018-08-31T00:50:54.944Z,76.61
2018-08-31T00:53:23.696Z,76.73
2018-08-31T00:55:52.448Z,78.13
2018-08-31T00:58:21.223Z,77.79
2018-08-31T01:00:50.047Z,77.59
2018-08-31T01:03:18.846Z,76.80
2018-08-31T01:05:47.617Z,76.30
2018-08-31T01:08:16.409Z,77.44
2018-08-31T01:10:45.177Z,77.34
2018-08-31T01:13:13.948Z,76.96
2018-08-31T01:15:42.704Z,76.79
2018-08-31T01:18:11.524Z,76.34
2018-08-31T01:20:40.291Z,75.47
2018-08-31T01:23:09.239Z,75.42
2018-08-31T01:25:38.125Z,75.98
2018-08-31T01:28:06.904Z,75.62
2018-08-31T01:30:35.664Z,76.29
2018-08-31T01:33:04.460Z,74.93
2018-08-31T01:35:33.303Z,75.57
2018-08-31T01:38:02.128Z,75.98
2018-08-31T01:40:31.043Z,75.62
2018-08-31T01:42:59.807Z,76.14
2018-08-31T01:45:28.818Z,75.48
2018-08-31T01:47:57.592Z,75.57
2018-08-31T01:50:26.396Z,75.81
2018-08-31T01:52:55.191Z,75.13
2018-08-31T01:55:29.343Z,75.84
2018-08-31T01:57:58.184Z,76.37
2018-08-31T02:00:27.029Z,76.51
2018-08-31T02:02:55.795Z,76.64
2018-08-31T02:05:24.694Z,76.64
2018-08-31T02:07:53.452Z,77.83
2018-08-31T02:10:22.228Z,78.62
2018-08-31T02:12:50.995Z,78.88
2018-08-31T02:15:19.777Z,79.89
2018-08-31T02:17:48.523Z,79.92
2018-08-31T02:20:17.297Z,79.99
2018-08-31T02:22:46.061Z,79.97
2018-08-31T02:25:14.812Z,78.92
2018-08-31T02:27:43.556Z,78.60
2018-08-31T02:30:12.329Z,79.20
2018-08-31T02:32:41.076Z,79.09
2018-08-31T02:35:09.849Z,79.43
2018-08-31T02:37:38.600Z,78.79
2018-08-31T02:40:07.406Z,78.60
2018-08-31T02:42:36.181Z,78.65
2018-08-31T02:45:05.048Z,78.29
2018-08-31T02:47:33.804Z,77.25
2018-08-31T02:50:02.568Z,77.02
2018-08-31T02:52:31.343Z,77.56
2018-08-31T02:55:00.089Z,76.67
2018-08-31T02:57:28.930Z,76.88
2018-08-31T02:59:57.712Z,77.06
2018-08-31T03:02:26.517Z,77.38
2018-08-31T03:04:55.273Z,77.27
2018-08-31T03:07:24.008Z,77.38
2018-08-31T03:09:52.761Z,78.45
2018-08-31T03:12:21.537Z,77.72
2018-08-31T03:14:50.281Z,77.91
2018-08-31T03:17:19.062Z,79.39
2018-08-31T03:19:47.820Z,79.49
2018-08-31T03:22:16.588Z,79.82
2018-08-31T03:24:45.401Z,80.90
2018-08-31T03:27:14.159Z,80.44
2018-08-31T03:29:42.907Z,81.22
2018-08-31T03:32:11.686Z,81.10
2018-08-31T03:34:40.461Z,80.31
2018-08-31T03:37:09.261Z,79.27
2018-08-31T03:39:38.023Z,78.01
2018-08-31T03:42:07.084Z,77.79
2018-08-31T03:44:35.851Z,78.61
2018-08-31T03:47:05.160Z,78.82
2018-08-31T03:49:34.007Z,79.26
2018-08-31T03:52:02.768Z,79.52
2018-08-31T03:54:31.556Z,79.41
2018-08-31T03:57:00.957Z,78.75
2018-08-31T03:59:29.697Z,79.04
2018-08-31T04:01:58.481Z,78.01
2018-08-31T04:04:27.261Z,78.10
2018-08-31T04:06:56.036Z,78.30
2018-08-31T04:09:24.795Z,78.95
2018-08-31T04:11:53.668Z,79.44
2018-08-31T04:14:22.426Z,80.19
2018-08-31T04:16:51.191Z,80.10
2018-08-31T04:19:19.978Z,79.58
2018-08-31T04:21:48.755Z,79.60
2018-08-31T04:24:17.765Z,79.95
2018-08-31T04:26:47.396Z,78.76
2018-08-31T04:29:16.150Z,79.27
2018-08-31T04:31:44.916Z,78.17
2018-08-31T04:34:13.770Z,78.66
2018-08-31T04:36:43.236Z,77.76
2018-08-31T04:39:13.374Z,77.25
2018-08-31T04:41:43.397Z,77.59
2018-08-31T04:44:18.837Z,77.25
2018-08-31T04:46:48.041Z,78.05
2018-08-31T04:49:17.068Z,78.47
2018-08-31T04:51:45.938Z,78.80
2018-08-31T04:54:14.764Z,79.00
2018-08-31T04:56:43.674Z,78.71
2018-08-31T04:59:12.941Z,78.92
2018-08-31T05:01:42.819Z,79.04
2018-08-31T05:04:12.037Z,78.22
2018-08-31T05:06:40.892Z,78.58
2018-08-31T05:09:11.387Z,78.08
2018-08-31T05:11:41.555Z,78.23
2018-08-31T05:14:10.374Z,77.31
2018-08-31T05:16:39.218Z,78.46
2018-08-31T05:19:08.285Z,77.83
2018-08-31T05:21:37.119Z,77.31
2018-08-31T05:24:06.041Z,76.20
2018-08-31T05:26:34.883Z,76.14
2018-08-31T05:29:03.736Z,76.12
2018-08-31T05:31:32.553Z,76.97
2018-08-31T05:34:01.845Z,77.14
2018-08-31T05:36:30.791Z,76.48
2018-08-31T05:38:59.582Z,76.19
2018-08-31T05:41:28.504Z,75.08
2018-08-31T05:43:57.340Z,74.81
2018-08-31T05:46:26.116Z,75.34
2018-08-31T05:48:54.888Z,74.33
2018-08-31T05:51:23.671Z,74.41
2018-08-31T05:53:52.435Z,74.78
2018-08-31T05:56:21.239Z,74.24
2018-08-31T05:58:49.996Z,74.38
2018-08-31T06:01:18.820Z,74.52
2018-08-31T06:03:47.575Z,74.76
2018-08-31T06:06:16.399Z,74.68
2018-08-31T06:08:45.179Z,74.64
2018-08-31T06:11:14.037Z,75.63
2018-08-31T06:13:42.902Z,74.69
2018-08-31T06:16:11.768Z,75.91
2018-08-31T06:18:40.557Z,75.70
2018-08-31T06:21:09.461Z,75.70
2018-08-31T06:23:38.108Z,77.39
2018-08-31T06:26:06.936Z,79.03
2018-08-31T06:28:35.716Z,79.53
2018-08-31T06:31:04.590Z,78.79
2018-08-31T06:33:33.385Z,78.37
2018-08-31T06:36:02.163Z,77.04
2018-08-31T06:38:30.954Z,75.98
2018-08-31T06:40:59.718Z,74.91
2018-08-31T06:43:28.482Z,75.55
2018-08-31T06:45:57.275Z,75.15
2018-08-31T06:48:26.028Z,75.63
2018-08-31T06:50:54.808Z,75.81
2018-08-31T06:53:23.562Z,76.43
2018-08-31T06:55:52.345Z,73.76
2018-08-31T06:58:21.161Z,74.95
2018-08-31T07:00:49.946Z,74.71
2018-08-31T07:03:18.756Z,75.75
2018-08-31T07:05:47.530Z,74.50
2018-08-31T07:08:16.326Z,74.32
2018-08-31T07:10:45.068Z,74.71
2018-08-31T07:13:13.821Z,74.02
2018-08-31T07:15:42.599Z,74.89
2018-08-31T07:18:11.364Z,74.90
2018-08-31T07:20:40.192Z,74.72
2018-08-31T07:23:08.958Z,74.06
2018-08-31T07:25:37.820Z,74.50
2018-08-31T07:28:06.584Z,73.42
2018-08-31T07:30:35.357Z,74.76
2018-08-31T07:33:04.140Z,75.21
2018-08-31T07:35:32.886Z,77.28
2018-08-31T07:38:01.669Z,76.69
2018-08-31T07:40:30.424Z,77.32
2018-08-31T07:42:59.177Z,77.76
2018-08-31T07:45:27.980Z,79.21
2018-08-31T07:47:56.817Z,80.19
2018-08-31T07:50:25.551Z,80.97
2018-08-31T07:52:54.332Z,81.70
2018-08-31T07:55:23.121Z,83.20
2018-08-31T07:57:51.892Z,84.21
2018-08-31T08:00:20.672Z,84.89
2018-08-31T08:02:49.481Z,84.62
2018-08-31T08:05:19.114Z,85.82
2018-08-31T08:07:47.877Z,83.98
2018-08-31T08:10:16.647Z,83.32
2018-08-31T08:12:45.438Z,83.47
2018-08-31T08:15:14.215Z,83.89
2018-08-31T08:17:42.973Z,84.12
2018-08-31T08:20:11.803Z,83.62
2018-08-31T08:22:40.656Z,84.09
2018-08-31T08:25:09.466Z,85.25
2018-08-31T08:27:38.232Z,85.69
2018-08-31T08:30:07.113Z,85.76
2018-08-31T08:32:35.860Z,86.38
2018-08-31T08:35:04.689Z,85.98
2018-08-31T08:37:33.462Z,85.37
2018-08-31T08:40:02.327Z,84.08
2018-08-31T08:42:31.246Z,84.78
2018-08-31T08:44:59.978Z,83.44
2018-08-31T08:47:28.852Z,83.18
2018-08-31T08:49:57.616Z,83.22
2018-08-31T08:52:26.399Z,82.40
2018-08-31T08:54:55.148Z,83.33
2018-08-31T08:57:23.931Z,85.57
2018-08-31T08:59:52.676Z,85.59
2018-08-31T09:02:21.447Z,85.38
2018-08-31T09:04:50.240Z,86.47
2018-08-31T09:07:19.280Z,86.81
2018-08-31T09:09:48.702Z,87.50
2018-08-31T09:12:17.611Z,86.07
2018-08-31T09:14:46.411Z,86.86
2018-08-31T09:17:15.195Z,85.16
2018-08-31T09:19:43.987Z,85.04
2018-08-31T09:22:12.779Z,84.75
2018-08-31T09:24:41.561Z,84.13
2018-08-31T09:27:10.408Z,84.65
2018-08-31T09:29:39.160Z,84.58
2018-08-31T09:32:13.265Z,83.77
2018-08-31T09:34:47.183Z,84.90
2018-08-31T09:37:17.740Z,84.22
2018-08-31T09:39:46.503Z,83.52
2018-08-31T09:42:15.328Z,83.70
2018-08-31T09:44:44.139Z,83.35
2018-08-31T09:47:13.449Z,84.18
2018-08-31T09:49:42.826Z,84.03
2018-08-31T09:52:12.121Z,83.68
2018-08-31T09:54:40.876Z,83.96
2018-08-31T09:57:09.816Z,83.34
2018-08-31T09:59:38.675Z,83.74
2018-08-31T10:02:12.656Z,84.01
2018-08-31T10:04:41.420Z,83.39
2018-08-31T10:07:10.189Z,81.90
2018-08-31T10:09:38.948Z,82.49
2018-08-31T10:12:07.731Z,83.16
2018-08-31T10:14:36.545Z,84.07
2018-08-31T10:17:05.364Z,81.55
2018-08-31T10:19:34.241Z,82.49
2018-08-31T10:22:03.007Z,82.22
2018-08-31T10:24:31.745Z,81.99
2018-08-31T10:27:00.556Z,81.10
2018-08-31T10:29:29.339Z,82.15
2018-08-31T10:31:58.171Z,81.41
2018-08-31T10:34:26.990Z,82.82
2018-08-31T10:36:55.772Z,83.95
2018-08-31T10:39:24.549Z,82.79
2018-08-31T10:41:53.337Z,82.78
2018-08-31T10:44:22.091Z,82.62
2018-08-31T10:46:50.867Z,84.50
2018-08-31T10:49:19.665Z,80.77
2018-08-31T10:51:48.528Z,80.96
2018-08-31T10:54:17.290Z,82.05
2018-08-31T10:56:46.092Z,80.95
2018-08-31T10:59:14.917Z,83.71
2018-08-31T11:01:43.681Z,83.39
2018-08-31T11:04:12.457Z,83.36
2018-08-31T11:06:41.361Z,84.19
2018-08-31T11:09:10.135Z,85.65
2018-08-31T11:11:38.961Z,84.84
2018-08-31T11:14:07.745Z,84.45
2018-08-31T11:16:36.504Z,84.93
2018-08-31T11:19:05.286Z,85.18
2018-08-31T11:21:34.136Z,85.84
2018-08-31T11:24:02.964Z,86.07
2018-08-31T11:26:31.719Z,84.46
2018-08-31T11:29:00.459Z,84.64
2018-08-31T11:31:29.249Z,85.00
2018-08-31T11:33:58.030Z,86.13
2018-08-31T11:36:26.924Z,86.97
2018-08-31T11:38:55.764Z,85.50
2018-08-31T11:41:24.596Z,85.80
2018-08-31T11:43:53.392Z,86.80
2018-08-31T11:46:22.203Z,86.82
2018-08-31T11:48:51.068Z,85.15
2018-08-31T11:51:19.957Z,84.87
2018-08-31T11:53:48.736Z,82.79
2018-08-31T11:56:17.528Z,82.32
2018-08-31T11:58:46.324Z,81.77
2018-08-31T12:01:15.160Z,82.50
2018-08-31T12:03:44.244Z,85.22
2018-08-31T12:06:13.281Z,84.75
2018-08-31T12:08:42.141Z,80.64
2018-08-31T12:11:11.048Z,80.68
2018-08-31T12:13:40.115Z,83.09
2018-08-31T12:16:08.913Z,83.11
2018-08-31T12:18:37.701Z,82.12
2018-08-31T12:21:07.338Z,80.60
2018-08-31T12:23:36.485Z,81.56
2018-08-31T12:26:05.536Z,82.09
2018-08-31T12:28:34.337Z,82.72
2018-08-31T12:31:03.115Z,83.11
2018-08-31T12:33:31.928Z,81.81
2018-08-31T12:36:00.727Z,82.41
2018-08-31T12:38:29.519Z,83.75
2018-08-31T12:40:58.375Z,84.06
2018-08-31T12:43:27.160Z,82.71
2018-08-31T12:45:55.998Z,82.33
2018-08-31T12:48:26.112Z,82.69
2018-08-31T12:50:55.743Z,82.33
2018-08-31T12:53:25.441Z,82.82
2018-08-31T12:55:54.284Z,82.50
2018-08-31T12:58:23.113Z,80.40
2018-08-31T13:00:52.119Z,80.07
2018-08-31T13:03:20.920Z,80.72
2018-08-31T13:05:49.809Z,79.50
2018-08-31T13:08:18.601Z,80.80
2018-08-31T13:10:47.446Z,81.17
2018-08-31T13:13:16.240Z,79.16
2018-08-31T13:15:45.016Z,80.86
2018-08-31T13:18:13.827Z,79.48
2018-08-31T13:20:42.724Z,80.40
2018-08-31T13:23:11.597Z,81.16
2018-08-31T13:25:40.507Z,80.60
2018-08-31T13:28:09.273Z,80.29
2018-08-31T13:30:38.077Z,78.90
2018-08-31T13:33:08.192Z,79.83
2018-08-31T13:35:37.140Z,78.85
2018-08-31T13:38:05.981Z,79.83
2018-08-31T13:40:34.963Z,79.71
2018-08-31T13:43:03.740Z,79.24
2018-08-31T13:45:32.519Z,79.68
2018-08-31T13:48:01.629Z,79.38
2018-08-31T13:50:30.395Z,78.60
2018-08-31T13:52:59.232Z,80.92
2018-08-31T13:55:27.972Z,80.51
2018-08-31T13:57:56.900Z,79.88
2018-08-31T14:00:25.711Z,78.45
2018-08-31T14:02:54.452Z,78.25
2018-08-31T14:05:23.748Z,78.92
2018-08-31T14:07:52.492Z,79.32
2018-08-31T14:10:21.310Z,80.08
2018-08-31T14:12:50.147Z,79.46
2018-08-31T14:15:18.883Z,80.31
2018-08-31T14:17:47.760Z,80.20
2018-08-31T14:20:17.222Z,80.14
2018-08-31T14:22:46.281Z,80.87
2018-08-31T14:25:15.513Z,81.52
2018-08-31T14:27:45.939Z,82.10
2018-08-31T14:30:15.085Z,82.59
2018-08-31T14:32:44.210Z,83.69
2018-08-31T14:35:13.287Z,80.98
2018-08-31T14:37:42.380Z,82.45
2018-08-31T14:40:11.466Z,82.49
2018-08-31T14:42:40.465Z,82.99
2018-08-31T14:45:09.907Z,84.23
2018-08-31T14:47:39.183Z,84.94
2018-08-31T14:50:08.421Z,85.17
2018-08-31T14:52:37.552Z,84.71
2018-08-31T14:55:06.864Z,84.95
2018-08-31T14:57:36.075Z,84.09
2018-08-31T15:00:05.513Z,85.71
2018-08-31T15:02:37.853Z,85.32
2018-08-31T15:05:06.920Z,85.36
2018-08-31T15:07:36.174Z,83.89
2018-08-31T15:10:05.438Z,83.75
2018-08-31T15:12:34.418Z,83.69
2018-08-31T15:15:03.510Z,85.46
2018-08-31T15:17:32.620Z,85.60
2018-08-31T15:20:01.465Z,85.25
2018-08-31T15:22:30.274Z,84.76
2018-08-31T15:24:59.074Z,85.70
2018-08-31T15:27:27.837Z,85.33
2018-08-31T15:29:56.608Z,85.63
2018-08-31T15:32:25.571Z,85.32
2018-08-31T15:34:54.354Z,84.41
2018-08-31T15:37:23.148Z,84.33
2018-08-31T15:39:51.945Z,83.40
2018-08-31T15:42:20.852Z,84.63
2018-08-31T15:44:49.549Z,85.12
2018-08-31T15:47:18.338Z,85.41
2018-08-31T15:49:47.329Z,86.30
2018-08-31T15:52:16.031Z,85.69
2018-08-31T15:54:44.865Z,85.61
2018-08-31T15:57:13.613Z,87.88
2018-08-31T15:59:42.425Z,86.78
2018-08-31T16:02:11.297Z,87.75
2018-08-31T16:04:40.065Z,85.70
2018-08-31T16:07:08.857Z,85.54
2018-08-31T16:09:37.627Z,86.89
2018-08-31T16:12:07.011Z,87.15
2018-08-31T16:14:35.814Z,86.06
2018-08-31T16:17:04.600Z,87.71
2018-08-31T16:19:33.411Z,88.78
2018-08-31T16:22:02.200Z,89.04
2018-08-31T16:24:30.981Z,89.80
2018-08-31T16:26:59.803Z,89.80
2018-08-31T16:29:28.590Z,89.68
2018-08-31T16:31:57.385Z,89.94
2018-08-31T16:34:26.177Z,90.08
2018-08-31T16:36:54.985Z,89.40
2018-08-31T16:39:23.788Z,89.38
2018-08-31T16:41:52.605Z,90.01
2018-08-31T16:44:21.393Z,89.89
2018-08-31T16:46:50.239Z,90.44
2018-08-31T16:49:19.053Z,90.52
2018-08-31T16:51:47.838Z,90.39
2018-08-31T16:54:16.665Z,90.38
2018-08-31T16:56:45.451Z,91.10
2018-08-31T16:59:14.228Z,90.76
2018-08-31T17:01:43.055Z,89.34
2018-08-31T17:04:11.862Z,90.11
2018-08-31T17:06:40.639Z,90.40
2018-08-31T17:09:11.506Z,90.95
2018-08-31T17:11:40.325Z,91.10
2018-08-31T17:14:09.136Z,91.21
2018-08-31T17:16:38.259Z,92.21
2018-08-31T17:19:07.108Z,93.60
2018-08-31T17:21:36.145Z,93.40
2018-08-31T17:24:04.990Z,93.31
2018-08-31T17:26:38.884Z,93.24
2018-08-31T17:29:12.699Z,93.52
2018-08-31T17:31:46.617Z,93.60
2018-08-31T17:34:20.714Z,93.65
2018-08-31T17:36:54.684Z,93.80
2018-08-31T17:39:23.493Z,92.53
2018-08-31T17:41:52.321Z,90.92
2018-08-31T17:44:21.122Z,88.75
2018-08-31T17:46:49.918Z,89.83
2018-08-31T17:49:18.719Z,88.98
2018-08-31T17:51:47.518Z,89.42
2018-08-31T17:54:16.301Z,89.58
2018-08-31T17:56:45.140Z,89.54
2018-08-31T17:59:13.976Z,89.61
2018-08-31T18:01:42.880Z,90.50
2018-08-31T18:04:11.702Z,90.33
2018-08-31T18:06:40.484Z,90.21
2018-08-31T18:09:09.327Z,89.97
2018-08-31T18:11:38.122Z,89.96
2018-08-31T18:14:06.933Z,89.63
2018-08-31T18:16:35.781Z,90.70
2018-08-31T18:19:04.515Z,90.48
2018-08-31T18:21:33.360Z,89.04
2018-08-31T18:24:02.149Z,88.84
2018-08-31T18:26:30.925Z,89.67
2018-08-31T18:28:59.742Z,89.45
2018-08-31T18:31:28.516Z,89.02
2018-08-31T18:33:57.309Z,87.83
2018-08-31T18:36:26.126Z,88.27
2018-08-31T18:38:54.987Z,87.91
2018-08-31T18:41:23.779Z,88.92
2018-08-31T18:43:52.538Z,89.91
2018-08-31T18:46:21.346Z,89.12
2018-08-31T18:48:50.118Z,89.62
2018-08-31T18:51:18.916Z,90.66
2018-08-31T18:53:47.702Z,91.78
2018-08-31T18:56:16.504Z,91.78
2018-08-31T18:58:45.285Z,91.37
2018-08-31T19:01:14.073Z,88.68
2018-08-31T19:03:42.883Z,88.55
2018-08-31T19:06:11.957Z,89.05
2018-08-31T19:08:40.732Z,88.22
2018-08-31T19:11:09.508Z,87.48
2018-08-31T19:13:38.290Z,87.71
2018-08-31T19:16:07.191Z,87.99
2018-08-31T19:18:36.005Z,89.61
2018-08-31T19:21:04.774Z,90.50
2018-08-31T19:23:33.554Z,91.27
2018-08-31T19:26:02.373Z,91.23
2018-08-31T19:28:31.165Z,91.85
2018-08-31T19:31:00.039Z,91.40
2018-08-31T19:33:28.820Z,91.51
2018-08-31T19:35:57.589Z,92.45
2018-08-31T19:38:26.435Z,92.10
2018-08-31T19:40:55.345Z,91.68
2018-08-31T19:43:24.135Z,90.85
2018-08-31T19:45:52.914Z,91.98
2018-08-31T19:48:21.747Z,92.34
2018-08-31T19:50:50.653Z,93.06
2018-08-31T19:53:19.449Z,92.52
2018-08-31T19:55:48.249Z,93.14
2018-08-31T19:58:17.090Z,93.21
2018-08-31T20:00:45.867Z,93.25
2018-08-31T20:03:14.649Z,93.64
2018-08-31T20:05:43.441Z,93.80
2018-08-31T20:08:12.224Z,93.51
2018-08-31T20:10:41.604Z,93.83
2018-08-31T20:13:10.781Z,93.39
2018-08-31T20:15:39.761Z,92.93
2018-08-31T20:18:08.545Z,93.00
2018-08-31T20:20:37.303Z,94.21
2018-08-31T20:23:06.152Z,95.27
2018-08-31T20:25:34.937Z,94.81
2018-08-31T20:28:03.737Z,94.57
2018-08-31T20:30:32.576Z,95.31
2018-08-31T20:33:01.336Z,95.97
2018-08-31T20:35:30.120Z,96.80
2018-08-31T20:37:58.886Z,96.63
2018-08-31T20:40:27.725Z,96.54
2018-08-31T20:42:56.556Z,96.62
2018-08-31T20:45:25.367Z,96.38
2018-08-31T20:48:00.784Z,96.58
2018-08-31T20:50:29.595Z,96.38
2018-08-31T20:52:58.416Z,96.53
2018-08-31T20:55:28.454Z,96.05
2018-08-31T20:57:59.353Z,96.65
2018-08-31T21:00:29.874Z,97.14
2018-08-31T21:02:58.883Z,97.13
2018-08-31T21:05:28.296Z,96.98
2018-08-31T21:07:57.485Z,97.32
2018-08-31T21:10:26.705Z,96.97
2018-08-31T21:12:56.047Z,97.08
2018-08-31T21:15:24.825Z,96.54
2018-08-31T21:17:53.642Z,96.76
2018-08-31T21:20:22.436Z,96.87
2018-08-31T21:22:51.236Z,96.90
2018-08-31T21:25:20.026Z,96.73
2018-08-31T21:27:48.829Z,97.25
2018-08-31T21:30:17.627Z,97.13
2018-08-31T21:32:46.376Z,96.77
2018-08-31T21:35:15.165Z,96.54
2018-08-31T21:37:44.311Z,96.27
2018-08-31T21:40:13.415Z,96.44
2018-08-31T21:42:42.320Z,95.27
2018-08-31T21:45:11.434Z,94.86
2018-08-31T21:47:40.583Z,95.28
2018-08-31T21:50:09.840Z,95.74
2018-08-31T21:52:39.001Z,95.86
2018-08-31T21:55:08.144Z,95.53
2018-08-31T21:57:37.341Z,95.21
2018-08-31T22:00:09.437Z,95.22
2018-08-31T22:02:38.460Z,95.18
2018-08-31T22:05:07.463Z,95.00
2018-08-31T22:07:36.240Z,95.74
2018-08-31T22:10:05.040Z,95.33
2018-08-31T22:12:33.864Z,95.67
2018-08-31T22:15:02.872Z,95.19
2018-08-31T22:17:31.675Z,94.53
2018-08-31T22:20:00.440Z,94.85
2018-08-31T22:22:29.187Z,94.68
2018-08-31T22:24:57.967Z,95.34
2018-08-31T22:27:26.708Z,95.35
2018-08-31T22:29:55.480Z,95.04
2018-08-31T22:32:24.224Z,95.47
2018-08-31T22:34:52.996Z,94.93
2018-08-31T22:37:21.791Z,95.57
2018-08-31T22:39:50.544Z,95.35
2018-08-31T22:42:19.296Z,95.32
2018-08-31T22:44:48.096Z,95.10
2018-08-31T22:47:16.899Z,95.48
2018-08-31T22:49:45.812Z,95.08
2018-08-31T22:52:14.599Z,95.55
2018-08-31T22:54:43.355Z,95.43
2018-08-31T22:57:12.129Z,96.29
2018-08-31T22:59:40.995Z,96.37
2018-08-31T23:02:09.740Z,96.33
2018-08-31T23:04:38.493Z,96.03
2018-08-31T23:07:11.392Z,94.98
2018-08-31T23:09:40.167Z,94.08
2018-08-31T23:12:08.951Z,93.84
2018-08-31T23:14:37.712Z,92.08
2018-08-31T23:17:06.553Z,91.66
2018-08-31T23:19:35.432Z,91.88
2018-08-31T23:22:04.269Z,92.29
2018-08-31T23:24:33.098Z,93.31
2018-08-31T23:27:02.321Z,93.58
2018-08-31T23:29:31.102Z,93.89
2018-08-31T23:31:59.844Z,94.23
2018-08-31T23:34:28.601Z,94.96
2018-08-31T23:36:57.353Z,94.82
2018-08-31T23:39:26.099Z,95.46
2018-08-31T23:41:54.855Z,95.61
2018-08-31T23:44:23.978Z,95.87
2018-08-31T23:46:52.827Z,95.95
2018-08-31T23:49:21.620Z,96.32
2018-08-31T23:51:50.368Z,96.35
2018-08-31T23:54:19.307Z,95.81
2018-08-31T23:56:48.041Z,95.90
2018-08-31T23:59:16.797Z,95.47
